sensor_id;sensor_type;location;lat;lon;timestamp;P1;durP1;ratioP1;P2;durP2;ratioP2
9854;SDS011;4966;48.112;9.282;2023-07-20T00:01:34;2.35;;;1.25;;
9854;SDS011;4966;48.112;9.282;2023-07-20T00:03:59;201.13;;;79.05;;
9854;SDS011;4966;48.112;9.282;2023-07-20T00:06:25;3.55;;;1.40;;
9854;SDS011;4966;48.112;9.282;2023-07-20T00:08:52;3.00;;;1.20;;
9854;SDS011;4966;48.112;9.282;2023-07-20T00:11:18;9.18;;;1.08;;
9854;SDS011;4966;48.112;9.282;2023-07-20T00:13:44;3.90;;;1.20;;
9854;SDS011;4966;48.112;9.282;2023-07-20T00:16:09;4.32;;;1.20;;
9854;SDS011;4966;48.112;9.282;2023-07-20T00:18:34;4.00;;;1.10;;
9854;SDS011;4966;48.112;9.282;2023-07-20T00:21:00;5.68;;;1.52;;
9854;SDS011;4966;48.112;9.282;2023-07-20T00:23:26;3.20;;;1.40;;
9854;SDS011;4966;48.112;9.282;2023-07-20T00:25:52;4.70;;;1.30;;
9854;SDS011;4966;48.112;9.282;2023-07-20T00:28:18;2.20;;;1.00;;
9854;SDS011;4966;48.112;9.282;2023-07-20T00:30:43;2.88;;;1.38;;
9854;SDS011;4966;48.112;9.282;2023-07-20T00:33:10;2.33;;;1.15;;
9854;SDS011;4966;48.112;9.282;2023-07-20T00:35:36;5.70;;;1.20;;
9854;SDS011;4966;48.112;9.282;2023-07-20T00:38:03;4.32;;;1.30;;
9854;SDS011;4966;48.112;9.282;2023-07-20T00:40:28;5.50;;;1.15;;
9854;SDS011;4966;48.112;9.282;2023-07-20T00:42:54;6.78;;;1.10;;
9854;SDS011;4966;48.112;9.282;2023-07-20T00:45:19;2.55;;;1.10;;
9854;SDS011;4966;48.112;9.282;2023-07-20T00:47:44;2.25;;;1.10;;
9854;SDS011;4966;48.112;9.282;2023-07-20T00:50:10;2.45;;;1.30;;
9854;SDS011;4966;48.112;9.282;2023-07-20T00:52:35;5.05;;;1.17;;
9854;SDS011;4966;48.112;9.282;2023-07-20T00:55:04;2.00;;;1.20;;
9854;SDS011;4966;48.112;9.282;2023-07-20T00:57:29;5.57;;;1.08;;
9854;SDS011;4966;48.112;9.282;2023-07-20T00:59:55;2.63;;;1.00;;
9854;SDS011;4966;48.112;9.282;2023-07-20T01:02:21;1.70;;;1.08;;
9854;SDS011;4966;48.112;9.282;2023-07-20T01:04:46;2.97;;;1.30;;
9854;SDS011;4966;48.112;9.282;2023-07-20T01:07:14;2.05;;;1.20;;
9854;SDS011;4966;48.112;9.282;2023-07-20T01:10:10;3.50;;;1.45;;
9854;SDS011;4966;48.112;9.282;2023-07-20T01:12:42;2.92;;;1.30;;
9854;SDS011;4966;48.112;9.282;2023-07-20T01:15:11;2.95;;;1.08;;
9854;SDS011;4966;48.112;9.282;2023-07-20T01:17:37;2.85;;;1.10;;
9854;SDS011;4966;48.112;9.282;2023-07-20T01:20:02;2.25;;;1.25;;
9854;SDS011;4966;48.112;9.282;2023-07-20T01:33:13;4.50;;;1.27;;
9854;SDS011;4966;48.112;9.282;2023-07-20T01:35:41;2.30;;;1.20;;
9854;SDS011;4966;48.112;9.282;2023-07-20T01:38:10;3.88;;;1.40;;
9854;SDS011;4966;48.112;9.282;2023-07-20T01:40:38;2.50;;;1.35;;
9854;SDS011;4966;48.112;9.282;2023-07-20T01:43:04;4.75;;;1.40;;
9854;SDS011;4966;48.112;9.282;2023-07-20T01:45:30;3.25;;;1.30;;
9854;SDS011;4966;48.112;9.282;2023-07-20T01:47:55;2.58;;;1.40;;
9854;SDS011;4966;48.112;9.282;2023-07-20T01:50:20;7.45;;;1.40;;
9854;SDS011;4966;48.112;9.282;2023-07-20T01:52:46;2.58;;;1.45;;
9854;SDS011;4966;48.112;9.282;2023-07-20T01:55:11;2.80;;;1.50;;
9854;SDS011;4966;48.112;9.282;2023-07-20T01:57:37;3.75;;;1.60;;
9854;SDS011;4966;48.112;9.282;2023-07-20T02:00:03;2.90;;;1.40;;
9854;SDS011;4966;48.112;9.282;2023-07-20T02:02:29;8.82;;;1.60;;
9854;SDS011;4966;48.112;9.282;2023-07-20T02:04:54;6.10;;;2.22;;
9854;SDS011;4966;48.112;9.282;2023-07-20T02:07:19;4.80;;;1.80;;
9854;SDS011;4966;48.112;9.282;2023-07-20T02:09:45;2.67;;;1.60;;
9854;SDS011;4966;48.112;9.282;2023-07-20T02:12:10;3.17;;;1.63;;
9854;SDS011;4966;48.112;9.282;2023-07-20T02:14:35;1.95;;;1.10;;
9854;SDS011;4966;48.112;9.282;2023-07-20T02:17:00;1.70;;;0.77;;
9854;SDS011;4966;48.112;9.282;2023-07-20T02:19:26;1.20;;;0.90;;
9854;SDS011;4966;48.112;9.282;2023-07-20T02:21:52;1.75;;;0.90;;
9854;SDS011;4966;48.112;9.282;2023-07-20T02:24:18;2.78;;;1.00;;
9854;SDS011;4966;48.112;9.282;2023-07-20T02:26:43;1.85;;;0.85;;
9854;SDS011;4966;48.112;9.282;2023-07-20T02:29:08;3.58;;;1.23;;
9854;SDS011;4966;48.112;9.282;2023-07-20T02:31:36;5.38;;;1.55;;
9854;SDS011;4966;48.112;9.282;2023-07-20T02:34:02;2.95;;;1.23;;
9854;SDS011;4966;48.112;9.282;2023-07-20T02:36:28;2.42;;;1.05;;
9854;SDS011;4966;48.112;9.282;2023-07-20T02:38:53;3.50;;;1.40;;
9854;SDS011;4966;48.112;9.282;2023-07-20T02:41:18;2.95;;;1.13;;
9854;SDS011;4966;48.112;9.282;2023-07-20T02:43:44;2.58;;;1.30;;
9854;SDS011;4966;48.112;9.282;2023-07-20T02:46:09;2.67;;;1.50;;
9854;SDS011;4966;48.112;9.282;2023-07-20T02:48:34;5.20;;;1.40;;
9854;SDS011;4966;48.112;9.282;2023-07-20T02:51:00;5.43;;;1.48;;
9854;SDS011;4966;48.112;9.282;2023-07-20T02:53:25;3.42;;;1.40;;
9854;SDS011;4966;48.112;9.282;2023-07-20T02:55:51;2.10;;;1.38;;
9854;SDS011;4966;48.112;9.282;2023-07-20T02:58:16;2.65;;;1.35;;
9854;SDS011;4966;48.112;9.282;2023-07-20T03:00:42;3.15;;;1.38;;
9854;SDS011;4966;48.112;9.282;2023-07-20T03:03:08;2.58;;;1.17;;
9854;SDS011;4966;48.112;9.282;2023-07-20T03:05:34;1.95;;;1.10;;
9854;SDS011;4966;48.112;9.282;2023-07-20T03:08:00;3.20;;;1.33;;
9854;SDS011;4966;48.112;9.282;2023-07-20T03:10:27;2.65;;;1.20;;
9854;SDS011;4966;48.112;9.282;2023-07-20T03:12:53;3.15;;;1.23;;
9854;SDS011;4966;48.112;9.282;2023-07-20T03:15:18;4.13;;;1.42;;
9854;SDS011;4966;48.112;9.282;2023-07-20T03:17:43;1.83;;;1.02;;
9854;SDS011;4966;48.112;9.282;2023-07-20T03:20:09;3.47;;;1.40;;
9854;SDS011;4966;48.112;9.282;2023-07-20T03:22:35;3.15;;;1.40;;
9854;SDS011;4966;48.112;9.282;2023-07-20T03:25:00;3.88;;;1.77;;
9854;SDS011;4966;48.112;9.282;2023-07-20T03:27:26;6.00;;;1.95;;
9854;SDS011;4966;48.112;9.282;2023-07-20T03:29:51;3.25;;;1.42;;
9854;SDS011;4966;48.112;9.282;2023-07-20T03:32:16;3.60;;;1.58;;
9854;SDS011;4966;48.112;9.282;2023-07-20T03:34:42;3.83;;;1.23;;
9854;SDS011;4966;48.112;9.282;2023-07-20T03:37:09;3.70;;;2.22;;
9854;SDS011;4966;48.112;9.282;2023-07-20T03:39:34;6.70;;;1.65;;
9854;SDS011;4966;48.112;9.282;2023-07-20T03:41:59;3.10;;;1.67;;
9854;SDS011;4966;48.112;9.282;2023-07-20T03:44:25;3.50;;;1.35;;
9854;SDS011;4966;48.112;9.282;2023-07-20T03:46:50;2.90;;;1.30;;
9854;SDS011;4966;48.112;9.282;2023-07-20T03:49:15;3.22;;;1.48;;
9854;SDS011;4966;48.112;9.282;2023-07-20T03:51:41;3.15;;;1.50;;
9854;SDS011;4966;48.112;9.282;2023-07-20T03:54:08;3.10;;;1.20;;
9854;SDS011;4966;48.112;9.282;2023-07-20T03:56:33;5.97;;;1.83;;
9854;SDS011;4966;48.112;9.282;2023-07-20T03:59:00;3.65;;;1.40;;
9854;SDS011;4966;48.112;9.282;2023-07-20T04:01:26;3.47;;;1.48;;
9854;SDS011;4966;48.112;9.282;2023-07-20T04:03:51;3.97;;;1.73;;
9854;SDS011;4966;48.112;9.282;2023-07-20T04:06:16;2.95;;;1.50;;
9854;SDS011;4966;48.112;9.282;2023-07-20T04:08:42;6.05;;;2.08;;
9854;SDS011;4966;48.112;9.282;2023-07-20T04:11:08;3.63;;;2.00;;
9854;SDS011;4966;48.112;9.282;2023-07-20T04:13:33;6.03;;;1.83;;
9854;SDS011;4966;48.112;9.282;2023-07-20T04:15:59;3.88;;;1.75;;
9854;SDS011;4966;48.112;9.282;2023-07-20T04:18:25;2.97;;;1.58;;
9854;SDS011;4966;48.112;9.282;2023-07-20T04:20:50;4.82;;;1.92;;
9854;SDS011;4966;48.112;9.282;2023-07-20T04:23:16;5.45;;;1.73;;
9854;SDS011;4966;48.112;9.282;2023-07-20T04:25:42;3.55;;;1.90;;
9854;SDS011;4966;48.112;9.282;2023-07-20T04:28:09;4.97;;;1.80;;
9854;SDS011;4966;48.112;9.282;2023-07-20T04:30:35;9.60;;;1.70;;
9854;SDS011;4966;48.112;9.282;2023-07-20T04:33:01;6.97;;;1.90;;
9854;SDS011;4966;48.112;9.282;2023-07-20T04:35:46;5.35;;;1.80;;
9854;SDS011;4966;48.112;9.282;2023-07-20T04:40:45;5.57;;;1.80;;
9854;SDS011;4966;48.112;9.282;2023-07-20T04:43:12;3.30;;;1.60;;
9854;SDS011;4966;48.112;9.282;2023-07-20T04:45:38;3.22;;;1.77;;
9854;SDS011;4966;48.112;9.282;2023-07-20T04:48:07;5.18;;;1.83;;
9854;SDS011;4966;48.112;9.282;2023-07-20T04:50:38;4.88;;;1.98;;
9854;SDS011;4966;48.112;9.282;2023-07-20T04:53:05;3.88;;;1.70;;
9854;SDS011;4966;48.112;9.282;2023-07-20T04:55:30;1999.90;;;999.90;;
9854;SDS011;4966;48.112;9.282;2023-07-20T04:57:55;1999.90;;;999.90;;
9854;SDS011;4966;48.112;9.282;2023-07-20T05:00:21;233.23;;;58.67;;
9854;SDS011;4966;48.112;9.282;2023-07-20T05:02:47;1999.90;;;999.90;;
9854;SDS011;4966;48.112;9.282;2023-07-20T05:05:14;1999.90;;;999.90;;
9854;SDS011;4966;48.112;9.282;2023-07-20T05:07:40;1999.90;;;999.90;;
9854;SDS011;4966;48.112;9.282;2023-07-20T05:10:05;1999.90;;;999.90;;
9854;SDS011;4966;48.112;9.282;2023-07-20T05:12:31;1999.90;;;999.90;;
9854;SDS011;4966;48.112;9.282;2023-07-20T05:14:56;1999.90;;;999.90;;
9854;SDS011;4966;48.112;9.282;2023-07-20T05:17:22;1999.90;;;999.90;;
9854;SDS011;4966;48.112;9.282;2023-07-20T05:19:47;1999.90;;;999.90;;
9854;SDS011;4966;48.112;9.282;2023-07-20T05:22:15;1999.90;;;999.90;;
9854;SDS011;4966;48.112;9.282;2023-07-20T05:24:41;1999.90;;;999.90;;
9854;SDS011;4966;48.112;9.282;2023-07-20T05:27:07;1999.90;;;999.90;;
9854;SDS011;4966;48.112;9.282;2023-07-20T05:29:32;1999.90;;;999.90;;
9854;SDS011;4966;48.112;9.282;2023-07-20T05:31:58;1999.90;;;999.90;;
9854;SDS011;4966;48.112;9.282;2023-07-20T05:34:23;1999.90;;;999.90;;
9854;SDS011;4966;48.112;9.282;2023-07-20T05:36:49;1999.90;;;999.90;;
9854;SDS011;4966;48.112;9.282;2023-07-20T05:39:16;1999.90;;;999.90;;
9854;SDS011;4966;48.112;9.282;2023-07-20T05:41:42;1999.90;;;999.90;;
9854;SDS011;4966;48.112;9.282;2023-07-20T05:44:07;1999.90;;;999.90;;
9854;SDS011;4966;48.112;9.282;2023-07-20T05:46:32;1999.90;;;999.90;;
9854;SDS011;4966;48.112;9.282;2023-07-20T05:48:57;1999.90;;;999.90;;
9854;SDS011;4966;48.112;9.282;2023-07-20T05:51:23;1999.90;;;999.90;;
9854;SDS011;4966;48.112;9.282;2023-07-20T05:53:48;1999.90;;;999.90;;
9854;SDS011;4966;48.112;9.282;2023-07-20T05:56:13;1999.90;;;999.90;;
9854;SDS011;4966;48.112;9.282;2023-07-20T05:58:39;1999.90;;;999.90;;
9854;SDS011;4966;48.112;9.282;2023-07-20T06:01:04;1999.90;;;999.90;;
9854;SDS011;4966;48.112;9.282;2023-07-20T06:03:32;1999.90;;;999.90;;
9854;SDS011;4966;48.112;9.282;2023-07-20T06:06:02;1999.90;;;999.90;;
9854;SDS011;4966;48.112;9.282;2023-07-20T06:08:29;1999.90;;;999.90;;
9854;SDS011;4966;48.112;9.282;2023-07-20T06:10:55;1999.90;;;999.90;;
9854;SDS011;4966;48.112;9.282;2023-07-20T06:13:20;1999.90;;;999.90;;
9854;SDS011;4966;48.112;9.282;2023-07-20T06:15:46;1999.90;;;999.90;;
9854;SDS011;4966;48.112;9.282;2023-07-20T06:18:12;1999.90;;;999.90;;
9854;SDS011;4966;48.112;9.282;2023-07-20T06:20:37;1999.90;;;999.90;;
9854;SDS011;4966;48.112;9.282;2023-07-20T06:23:03;1999.90;;;999.90;;
9854;SDS011;4966;48.112;9.282;2023-07-20T06:25:28;1999.90;;;999.90;;
9854;SDS011;4966;48.112;9.282;2023-07-20T06:27:54;1999.90;;;999.90;;
9854;SDS011;4966;48.112;9.282;2023-07-20T06:30:20;1999.90;;;999.90;;
9854;SDS011;4966;48.112;9.282;2023-07-20T06:32:46;1999.90;;;999.90;;
9854;SDS011;4966;48.112;9.282;2023-07-20T06:35:12;1999.90;;;999.90;;
9854;SDS011;4966;48.112;9.282;2023-07-20T06:37:37;1999.90;;;999.90;;
9854;SDS011;4966;48.112;9.282;2023-07-20T06:40:03;1999.90;;;999.90;;
9854;SDS011;4966;48.112;9.282;2023-07-20T06:42:29;1999.90;;;999.90;;
9854;SDS011;4966;48.112;9.282;2023-07-20T06:44:56;1999.90;;;999.90;;
9854;SDS011;4966;48.112;9.282;2023-07-20T06:47:21;1999.90;;;999.90;;
9854;SDS011;4966;48.112;9.282;2023-07-20T06:49:47;1999.90;;;999.90;;
9854;SDS011;4966;48.112;9.282;2023-07-20T06:52:12;1999.90;;;999.90;;
9854;SDS011;4966;48.112;9.282;2023-07-20T06:54:37;1999.90;;;999.90;;
9854;SDS011;4966;48.112;9.282;2023-07-20T06:57:03;1999.90;;;999.90;;
9854;SDS011;4966;48.112;9.282;2023-07-20T06:59:29;1999.90;;;999.90;;
9854;SDS011;4966;48.112;9.282;2023-07-20T07:01:55;1999.90;;;999.90;;
9854;SDS011;4966;48.112;9.282;2023-07-20T07:04:20;1999.90;;;999.90;;
9854;SDS011;4966;48.112;9.282;2023-07-20T07:06:46;1999.90;;;999.90;;
9854;SDS011;4966;48.112;9.282;2023-07-20T07:09:11;1999.90;;;999.90;;
9854;SDS011;4966;48.112;9.282;2023-07-20T07:11:37;1999.90;;;999.90;;
9854;SDS011;4966;48.112;9.282;2023-07-20T07:14:02;1999.90;;;999.90;;
9854;SDS011;4966;48.112;9.282;2023-07-20T07:16:28;1999.90;;;999.90;;
9854;SDS011;4966;48.112;9.282;2023-07-20T07:18:53;1999.90;;;999.90;;
9854;SDS011;4966;48.112;9.282;2023-07-20T07:21:19;1999.90;;;999.90;;
9854;SDS011;4966;48.112;9.282;2023-07-20T07:23:44;1999.90;;;999.90;;
9854;SDS011;4966;48.112;9.282;2023-07-20T07:26:10;1999.90;;;999.90;;
9854;SDS011;4966;48.112;9.282;2023-07-20T07:28:36;1999.90;;;999.90;;
9854;SDS011;4966;48.112;9.282;2023-07-20T07:31:04;1999.90;;;999.90;;
9854;SDS011;4966;48.112;9.282;2023-07-20T07:33:29;1999.90;;;999.90;;
9854;SDS011;4966;48.112;9.282;2023-07-20T07:35:55;1999.90;;;999.90;;
9854;SDS011;4966;48.112;9.282;2023-07-20T07:38:20;1999.90;;;999.90;;
9854;SDS011;4966;48.112;9.282;2023-07-20T07:40:46;1999.90;;;999.90;;
9854;SDS011;4966;48.112;9.282;2023-07-20T07:43:11;1999.90;;;999.90;;
9854;SDS011;4966;48.112;9.282;2023-07-20T07:45:38;1.90;;;1.20;;
9854;SDS011;4966;48.112;9.282;2023-07-20T07:48:05;4.90;;;1.65;;
9854;SDS011;4966;48.112;9.282;2023-07-20T07:50:30;2.55;;;1.20;;
9854;SDS011;4966;48.112;9.282;2023-07-20T07:52:56;1.73;;;0.95;;
9854;SDS011;4966;48.112;9.282;2023-07-20T07:55:22;4.03;;;1.17;;
9854;SDS011;4966;48.112;9.282;2023-07-20T07:57:47;1.27;;;0.77;;
9854;SDS011;4966;48.112;9.282;2023-07-20T08:00:13;3.55;;;0.90;;
9854;SDS011;4966;48.112;9.282;2023-07-20T08:02:42;3.50;;;0.80;;
9854;SDS011;4966;48.112;9.282;2023-07-20T08:05:08;1.35;;;0.75;;
9854;SDS011;4966;48.112;9.282;2023-07-20T08:07:34;1.13;;;0.65;;
9854;SDS011;4966;48.112;9.282;2023-07-20T08:10:00;1.30;;;0.75;;
9854;SDS011;4966;48.112;9.282;2023-07-20T08:12:25;1.00;;;0.50;;
9854;SDS011;4966;48.112;9.282;2023-07-20T08:14:51;1.05;;;0.60;;
9854;SDS011;4966;48.112;9.282;2023-07-20T08:17:17;3.15;;;0.90;;
9854;SDS011;4966;48.112;9.282;2023-07-20T08:19:42;1.90;;;0.95;;
9854;SDS011;4966;48.112;9.282;2023-07-20T08:22:08;2.78;;;0.85;;
9854;SDS011;4966;48.112;9.282;2023-07-20T08:24:34;1.75;;;0.90;;
9854;SDS011;4966;48.112;9.282;2023-07-20T08:26:59;3.65;;;0.98;;
9854;SDS011;4966;48.112;9.282;2023-07-20T08:29:24;2.05;;;0.88;;
9854;SDS011;4966;48.112;9.282;2023-07-20T08:31:50;1.73;;;0.90;;
9854;SDS011;4966;48.112;9.282;2023-07-20T08:34:15;2.78;;;0.75;;
9854;SDS011;4966;48.112;9.282;2023-07-20T08:36:41;1.92;;;0.90;;
9854;SDS011;4966;48.112;9.282;2023-07-20T08:39:06;2.33;;;1.10;;
9854;SDS011;4966;48.112;9.282;2023-07-20T08:41:33;2.38;;;0.90;;
9854;SDS011;4966;48.112;9.282;2023-07-20T08:43:59;1.75;;;0.88;;
9854;SDS011;4966;48.112;9.282;2023-07-20T08:46:26;2.80;;;0.95;;
9854;SDS011;4966;48.112;9.282;2023-07-20T08:48:52;1.23;;;0.73;;
9854;SDS011;4966;48.112;9.282;2023-07-20T08:51:19;2.10;;;0.90;;
9854;SDS011;4966;48.112;9.282;2023-07-20T08:53:46;2.22;;;1.00;;
9854;SDS011;4966;48.112;9.282;2023-07-20T08:56:12;2.03;;;1.00;;
9854;SDS011;4966;48.112;9.282;2023-07-20T09:01:08;1.85;;;0.93;;
9854;SDS011;4966;48.112;9.282;2023-07-20T09:03:34;2.03;;;0.95;;
9854;SDS011;4966;48.112;9.282;2023-07-20T09:05:59;2.17;;;0.90;;
9854;SDS011;4966;48.112;9.282;2023-07-20T09:08:25;4.05;;;1.40;;
9854;SDS011;4966;48.112;9.282;2023-07-20T09:10:50;3.22;;;1.25;;
9854;SDS011;4966;48.112;9.282;2023-07-20T09:13:15;1.65;;;0.90;;
9854;SDS011;4966;48.112;9.282;2023-07-20T09:15:47;1.98;;;1.10;;
9854;SDS011;4966;48.112;9.282;2023-07-20T09:18:24;2.25;;;1.25;;
9854;SDS011;4966;48.112;9.282;2023-07-20T09:20:57;2.83;;;0.90;;
9854;SDS011;4966;48.112;9.282;2023-07-20T09:23:33;3.08;;;1.13;;
9854;SDS011;4966;48.112;9.282;2023-07-20T09:25:59;1.38;;;0.70;;
9854;SDS011;4966;48.112;9.282;2023-07-20T09:28:25;1.70;;;0.80;;
9854;SDS011;4966;48.112;9.282;2023-07-20T09:30:50;1.95;;;0.75;;
9854;SDS011;4966;48.112;9.282;2023-07-20T09:33:19;2.35;;;0.80;;
9854;SDS011;4966;48.112;9.282;2023-07-20T09:35:46;2.35;;;1.00;;
9854;SDS011;4966;48.112;9.282;2023-07-20T09:38:11;1.80;;;0.90;;
9854;SDS011;4966;48.112;9.282;2023-07-20T09:40:40;1.38;;;0.82;;
9854;SDS011;4966;48.112;9.282;2023-07-20T09:43:08;1.63;;;0.88;;
9854;SDS011;4966;48.112;9.282;2023-07-20T09:45:35;1.95;;;1.08;;
9854;SDS011;4966;48.112;9.282;2023-07-20T09:48:04;3.80;;;0.90;;
9854;SDS011;4966;48.112;9.282;2023-07-20T09:50:33;3.25;;;0.98;;
9854;SDS011;4966;48.112;9.282;2023-07-20T09:53:02;2.05;;;0.88;;
9854;SDS011;4966;48.112;9.282;2023-07-20T09:55:27;1.98;;;0.80;;
9854;SDS011;4966;48.112;9.282;2023-07-20T09:57:54;2.90;;;0.73;;
9854;SDS011;4966;48.112;9.282;2023-07-20T10:00:21;2.42;;;0.95;;
9854;SDS011;4966;48.112;9.282;2023-07-20T10:02:46;1.70;;;1.00;;
9854;SDS011;4966;48.112;9.282;2023-07-20T10:05:12;2.22;;;0.77;;
9854;SDS011;4966;48.112;9.282;2023-07-20T10:07:48;1.27;;;0.80;;
9854;SDS011;4966;48.112;9.282;2023-07-20T10:10:15;2.42;;;1.10;;
9854;SDS011;4966;48.112;9.282;2023-07-20T10:12:42;1.67;;;0.88;;
9854;SDS011;4966;48.112;9.282;2023-07-20T10:15:10;1.30;;;0.70;;
9854;SDS011;4966;48.112;9.282;2023-07-20T10:17:40;1.48;;;0.75;;
9854;SDS011;4966;48.112;9.282;2023-07-20T10:20:14;1.85;;;1.00;;
9854;SDS011;4966;48.112;9.282;2023-07-20T10:22:41;3.00;;;1.17;;
9854;SDS011;4966;48.112;9.282;2023-07-20T10:25:10;3.17;;;1.10;;
9854;SDS011;4966;48.112;9.282;2023-07-20T10:27:36;1.60;;;0.90;;
9854;SDS011;4966;48.112;9.282;2023-07-20T10:30:04;3.25;;;1.20;;
9854;SDS011;4966;48.112;9.282;2023-07-20T10:32:30;2.45;;;1.02;;
9854;SDS011;4966;48.112;9.282;2023-07-20T10:34:56;1.83;;;0.95;;
9854;SDS011;4966;48.112;9.282;2023-07-20T10:42:57;1.50;;;1.05;;
9854;SDS011;4966;48.112;9.282;2023-07-20T10:45:34;2.03;;;1.10;;
9854;SDS011;4966;48.112;9.282;2023-07-20T10:48:02;1.73;;;0.80;;
9854;SDS011;4966;48.112;9.282;2023-07-20T10:50:29;4.45;;;0.95;;
9854;SDS011;4966;48.112;9.282;2023-07-20T10:53:04;1.98;;;1.15;;
9854;SDS011;4966;48.112;9.282;2023-07-20T10:55:30;2.13;;;0.98;;
9854;SDS011;4966;48.112;9.282;2023-07-20T10:58:14;2.22;;;0.95;;
9854;SDS011;4966;48.112;9.282;2023-07-20T11:03:32;4.63;;;1.10;;
9854;SDS011;4966;48.112;9.282;2023-07-20T11:06:29;2.15;;;1.08;;
9854;SDS011;4966;48.112;9.282;2023-07-20T11:11:48;2.38;;;0.95;;
9854;SDS011;4966;48.112;9.282;2023-07-20T11:14:20;2.08;;;0.90;;
9854;SDS011;4966;48.112;9.282;2023-07-20T11:16:46;2.53;;;0.90;;
9854;SDS011;4966;48.112;9.282;2023-07-20T11:19:13;4.93;;;1.35;;
9854;SDS011;4966;48.112;9.282;2023-07-20T11:24:23;2.08;;;1.10;;
9854;SDS011;4966;48.112;9.282;2023-07-20T11:26:50;4.47;;;1.33;;
9854;SDS011;4966;48.112;9.282;2023-07-20T11:29:22;4.80;;;1.20;;
9854;SDS011;4966;48.112;9.282;2023-07-20T11:31:50;2.50;;;1.23;;
9854;SDS011;4966;48.112;9.282;2023-07-20T11:34:20;2.65;;;1.00;;
9854;SDS011;4966;48.112;9.282;2023-07-20T11:36:47;4.50;;;1.48;;
9854;SDS011;4966;48.112;9.282;2023-07-20T11:39:14;5.43;;;1.35;;
9854;SDS011;4966;48.112;9.282;2023-07-20T11:41:49;2.20;;;1.40;;
9854;SDS011;4966;48.112;9.282;2023-07-20T11:44:16;3.58;;;1.30;;
9854;SDS011;4966;48.112;9.282;2023-07-20T11:46:43;1.40;;;1.00;;
9854;SDS011;4966;48.112;9.282;2023-07-20T11:49:12;1.65;;;0.90;;
9854;SDS011;4966;48.112;9.282;2023-07-20T11:51:37;2.38;;;1.08;;
9854;SDS011;4966;48.112;9.282;2023-07-20T11:54:05;2.60;;;1.00;;
9854;SDS011;4966;48.112;9.282;2023-07-20T11:56:32;4.57;;;0.80;;
9854;SDS011;4966;48.112;9.282;2023-07-20T11:58:58;3.00;;;0.93;;
9854;SDS011;4966;48.112;9.282;2023-07-20T12:01:25;1.52;;;0.88;;
9854;SDS011;4966;48.112;9.282;2023-07-20T12:03:56;1.30;;;0.80;;
9854;SDS011;4966;48.112;9.282;2023-07-20T12:06:22;1.73;;;0.80;;
9854;SDS011;4966;48.112;9.282;2023-07-20T12:08:50;1.92;;;0.90;;
9854;SDS011;4966;48.112;9.282;2023-07-20T12:11:30;3.65;;;0.90;;
9854;SDS011;4966;48.112;9.282;2023-07-20T12:13:57;0.65;;;0.50;;
9854;SDS011;4966;48.112;9.282;2023-07-20T12:16:26;1.75;;;0.88;;
9854;SDS011;4966;48.112;9.282;2023-07-20T12:18:58;1.98;;;0.73;;
9854;SDS011;4966;48.112;9.282;2023-07-20T12:21:24;2.72;;;1.08;;
9854;SDS011;4966;48.112;9.282;2023-07-20T12:23:50;1.75;;;0.70;;
9854;SDS011;4966;48.112;9.282;2023-07-20T12:26:15;8.05;;;1.23;;
9854;SDS011;4966;48.112;9.282;2023-07-20T12:28:41;1.35;;;0.80;;
9854;SDS011;4966;48.112;9.282;2023-07-20T12:31:09;2.40;;;0.70;;
9854;SDS011;4966;48.112;9.282;2023-07-20T12:33:36;2.25;;;0.90;;
9854;SDS011;4966;48.112;9.282;2023-07-20T12:36:03;1.92;;;1.02;;
9854;SDS011;4966;48.112;9.282;2023-07-20T12:38:29;1.17;;;0.70;;
9854;SDS011;4966;48.112;9.282;2023-07-20T12:40:55;3.40;;;1.20;;
9854;SDS011;4966;48.112;9.282;2023-07-20T12:43:21;1.38;;;0.80;;
9854;SDS011;4966;48.112;9.282;2023-07-20T12:45:47;0.95;;;0.70;;
9854;SDS011;4966;48.112;9.282;2023-07-20T12:48:12;1.83;;;0.75;;
9854;SDS011;4966;48.112;9.282;2023-07-20T12:50:37;3.17;;;0.90;;
9854;SDS011;4966;48.112;9.282;2023-07-20T12:53:03;1.02;;;0.55;;
9854;SDS011;4966;48.112;9.282;2023-07-20T12:55:28;2.35;;;0.80;;
9854;SDS011;4966;48.112;9.282;2023-07-20T12:57:54;1.13;;;0.80;;
9854;SDS011;4966;48.112;9.282;2023-07-20T13:00:20;1.35;;;0.88;;
9854;SDS011;4966;48.112;9.282;2023-07-20T13:02:47;1.98;;;0.88;;
9854;SDS011;4966;48.112;9.282;2023-07-20T13:05:12;1.67;;;0.90;;
9854;SDS011;4966;48.112;9.282;2023-07-20T13:07:38;5.30;;;0.90;;
9854;SDS011;4966;48.112;9.282;2023-07-20T13:10:04;1.27;;;0.77;;
9854;SDS011;4966;48.112;9.282;2023-07-20T13:12:31;1.90;;;0.90;;
9854;SDS011;4966;48.112;9.282;2023-07-20T13:14:57;3.25;;;1.08;;
9854;SDS011;4966;48.112;9.282;2023-07-20T13:17:26;2.83;;;1.00;;
9854;SDS011;4966;48.112;9.282;2023-07-20T13:19:52;2.70;;;1.38;;
9854;SDS011;4966;48.112;9.282;2023-07-20T13:22:17;2.05;;;1.15;;
9854;SDS011;4966;48.112;9.282;2023-07-20T13:24:44;4.30;;;1.20;;
9854;SDS011;4966;48.112;9.282;2023-07-20T13:27:13;2.47;;;1.10;;
9854;SDS011;4966;48.112;9.282;2023-07-20T13:29:39;2.28;;;0.90;;
9854;SDS011;4966;48.112;9.282;2023-07-20T13:32:04;2.97;;;1.02;;
9854;SDS011;4966;48.112;9.282;2023-07-20T13:34:31;4.30;;;1.30;;
9854;SDS011;4966;48.112;9.282;2023-07-20T13:36:56;1.48;;;0.75;;
9854;SDS011;4966;48.112;9.282;2023-07-20T13:39:22;3.67;;;1.10;;
9854;SDS011;4966;48.112;9.282;2023-07-20T13:41:49;2.78;;;0.70;;
9854;SDS011;4966;48.112;9.282;2023-07-20T13:44:14;2.05;;;0.80;;
9854;SDS011;4966;48.112;9.282;2023-07-20T13:46:40;1.42;;;0.90;;
9854;SDS011;4966;48.112;9.282;2023-07-20T13:49:05;1.30;;;0.90;;
9854;SDS011;4966;48.112;9.282;2023-07-20T13:51:30;1.35;;;0.80;;
9854;SDS011;4966;48.112;9.282;2023-07-20T13:53:56;1.40;;;0.90;;
9854;SDS011;4966;48.112;9.282;2023-07-20T13:56:22;3.03;;;0.90;;
9854;SDS011;4966;48.112;9.282;2023-07-20T13:58:49;2.95;;;0.70;;
9854;SDS011;4966;48.112;9.282;2023-07-20T14:01:15;1.05;;;0.70;;
9854;SDS011;4966;48.112;9.282;2023-07-20T14:03:41;1.63;;;1.00;;
9854;SDS011;4966;48.112;9.282;2023-07-20T14:06:06;2.70;;;0.90;;
9854;SDS011;4966;48.112;9.282;2023-07-20T14:08:31;3.03;;;1.10;;
9854;SDS011;4966;48.112;9.282;2023-07-20T14:10:57;2.30;;;0.95;;
9854;SDS011;4966;48.112;9.282;2023-07-20T14:13:23;2.13;;;1.10;;
9854;SDS011;4966;48.112;9.282;2023-07-20T14:15:48;2.08;;;0.88;;
9854;SDS011;4966;48.112;9.282;2023-07-20T14:18:15;2.38;;;1.00;;
9854;SDS011;4966;48.112;9.282;2023-07-20T14:20:40;2.60;;;1.10;;
9854;SDS011;4966;48.112;9.282;2023-07-20T14:23:06;1.30;;;0.80;;
9854;SDS011;4966;48.112;9.282;2023-07-20T14:25:31;3.25;;;1.40;;
9854;SDS011;4966;48.112;9.282;2023-07-20T14:27:58;2.05;;;1.15;;
9854;SDS011;4966;48.112;9.282;2023-07-20T14:30:24;1.92;;;1.08;;
9854;SDS011;4966;48.112;9.282;2023-07-20T14:32:49;1.50;;;1.02;;
9854;SDS011;4966;48.112;9.282;2023-07-20T14:35:15;2.38;;;1.00;;
9854;SDS011;4966;48.112;9.282;2023-07-20T14:37:40;2.25;;;1.20;;
9854;SDS011;4966;48.112;9.282;2023-07-20T14:40:05;3.42;;;1.10;;
9854;SDS011;4966;48.112;9.282;2023-07-20T14:42:32;2.15;;;1.00;;
9854;SDS011;4966;48.112;9.282;2023-07-20T14:44:57;3.65;;;1.50;;
9854;SDS011;4966;48.112;9.282;2023-07-20T14:47:23;1.95;;;0.90;;
9854;SDS011;4966;48.112;9.282;2023-07-20T14:49:48;3.08;;;1.10;;
9854;SDS011;4966;48.112;9.282;2023-07-20T14:52:14;2.17;;;1.38;;
9854;SDS011;4966;48.112;9.282;2023-07-20T14:54:39;2.85;;;1.50;;
9854;SDS011;4966;48.112;9.282;2023-07-20T14:57:04;1.48;;;1.08;;
9854;SDS011;4966;48.112;9.282;2023-07-20T14:59:32;1.42;;;0.70;;
9854;SDS011;4966;48.112;9.282;2023-07-20T15:01:57;3.13;;;1.33;;
9854;SDS011;4966;48.112;9.282;2023-07-20T15:04:23;5.32;;;1.55;;
9854;SDS011;4966;48.112;9.282;2023-07-20T15:06:48;4.35;;;1.38;;
9854;SDS011;4966;48.112;9.282;2023-07-20T15:09:13;9.55;;;1.30;;
9854;SDS011;4966;48.112;9.282;2023-07-20T15:11:39;1.67;;;1.23;;
9854;SDS011;4966;48.112;9.282;2023-07-20T15:14:04;3.35;;;1.25;;
9854;SDS011;4966;48.112;9.282;2023-07-20T15:16:30;2.67;;;1.27;;
9854;SDS011;4966;48.112;9.282;2023-07-20T15:18:55;4.95;;;1.25;;
9854;SDS011;4966;48.112;9.282;2023-07-20T15:21:20;2.45;;;1.25;;
9854;SDS011;4966;48.112;9.282;2023-07-20T15:23:46;2.25;;;1.10;;
9854;SDS011;4966;48.112;9.282;2023-07-20T15:26:11;3.70;;;1.33;;
9854;SDS011;4966;48.112;9.282;2023-07-20T15:28:37;5.85;;;1.10;;